Time;durP1;ratioP1;P1;durP2;ratioP2;P2;SDS_P1;SDS_P2;PMS_P1;PMS_P2;Temp;Humidity;BMP_temperature;BMP_pressure;BME280_temperature;BME280_humidity;BME280_pressure;Samples;Min_cycle;Max_cycle;Signal;HPM_P1;HPM_P2
2022/11/07 00:04:31;;;;;;;39.83;21.23;;;;;;;2.67;79.55;100041.94;30623183;28;97363;-69
2022/11/07 00:19:31;;;;;;;48.13;23.50;;;;;;;2.48;80.04;100036.50;30622837;28;96622;-68
2022/11/07 00:34:34;;;;;;;38.40;18.05;;;;;;;2.40;80.27;100038.88;30621033;28;96775;-69
2022/11/07 00:49:34;;;;;;;36.85;17.95;;;;;;;2.50;80.28;100038.03;30619351;28;97029;-68
2022/11/07 01:19:54;;;;;;;31.58;17.95;;;;;;;2.45;80.77;100006.00;30617478;28;97007;-72
2022/11/07 01:34:55;;;;;;;25.98;13.68;;;;;;;2.65;80.70;99964.97;30615761;28;96832;-67
2022/11/07 01:49:56;;;;;;;29.50;15.40;;;;;;;2.82;81.07;99953.06;30614443;28;97313;-75
2022/11/07 02:04:59;;;;;;;26.10;14.35;;;;;;;2.95;81.62;99916.03;30613404;28;96560;-70
2022/11/07 02:20:00;;;;;;;23.50;11.23;;;;;;;3.37;81.06;99910.75;30619708;28;96778;-67
2022/11/07 02:35:25;;;;;;;21.80;11.30;;;;;;;3.72;81.21;99903.44;30632483;28;96782;-67
2022/11/07 02:50:26;;;;;;;17.88;9.70;;;;;;;3.94;81.25;99902.41;30630820;28;97231;-67
2022/11/07 03:05:26;;;;;;;16.48;9.15;;;;;;;4.06;80.75;99901.31;30629799;28;96636;-67
2022/11/07 03:20:27;;;;;;;17.83;8.88;;;;;;;4.24;80.55;99924.38;30629144;28;96648;-68
2022/11/07 03:35:27;;;;;;;20.98;9.82;;;;;;;4.39;80.61;99938.03;30626470;28;96719;-67
2022/11/07 03:50:28;;;;;;;18.42;9.23;;;;;;;4.47;80.62;99954.00;30624047;28;97267;-72
2022/11/07 04:05:29;;;;;;;16.60;8.90;;;;;;;4.69;80.79;99962.63;30623155;28;96662;-68
2022/11/07 04:20:29;;;;;;;20.38;9.55;;;;;;;4.81;80.67;99956.25;30622571;28;97262;-67
2022/11/07 04:35:32;;;;;;;17.02;8.80;;;;;;;4.85;80.85;99943.59;30619476;28;97064;-68
2022/11/07 04:50:32;;;;;;;17.17;8.98;;;;;;;4.98;80.49;99930.94;30615736;28;96637;-69
2022/11/07 05:05:32;;;;;;;21.85;9.52;;;;;;;4.96;80.18;99935.56;30614737;28;96631;-68
2022/11/07 05:20:35;;;;;;;19.75;10.98;;;;;;;5.05;80.38;99908.28;30612398;28;97570;-67
2022/11/07 05:35:36;;;;;;;16.30;9.15;;;;;;;5.04;80.00;99943.59;30610439;28;97072;-75
2022/11/07 05:50:37;;;;;;;18.38;8.57;;;;;;;5.24;80.40;99964.69;30609528;28;96774;-68
2022/11/07 06:05:38;;;;;;;19.83;11.52;;;;;;;5.41;80.07;99984.25;30605669;28;97275;-67
2022/11/07 06:20:38;;;;;;;18.50;10.15;;;;;;;5.56;80.10;100016.34;30605267;28;98399;-66
2022/11/07 06:35:39;;;;;;;15.85;10.02;;;;;;;5.89;80.08;100025.63;30606413;28;96789;-71
2022/11/07 06:50:39;;;;;;;20.27;8.88;;;;;;;6.04;79.57;100049.81;30601622;28;96858;-69
2022/11/07 07:05:40;;;;;;;14.57;8.70;;;;;;;6.41;79.61;100058.69;30607150;28;96882;-68
2022/11/07 07:20:40;;;;;;;20.05;8.73;;;;;;;6.63;78.76;100081.31;30620059;28;97977;-67
2022/11/07 07:35:41;;;;;;;13.13;8.68;;;;;;;7.42;78.77;100103.66;30616936;28;97942;-68
2022/11/07 07:50:41;;;;;;;15.82;7.90;;;;;;;7.89;78.13;100123.75;30614559;28;96771;-69
2022/11/07 08:05:41;;;;;;;12.85;7.72;;;;;;;8.57;76.99;100142.59;30613256;28;97248;-68
2022/11/07 08:20:42;;;;;;;10.48;7.15;;;;;;;9.41;75.58;100145.41;30612717;28;97096;-69
2022/11/07 08:35:42;;;;;;;12.38;6.53;;;;;;;10.02;74.20;100161.88;30611358;28;96879;-72
2022/11/07 08:50:43;;;;;;;13.60;5.75;;;;;;;11.66;71.36;100175.63;30606515;28;97269;-71
2022/11/07 09:05:43;;;;;;;9.93;5.57;;;;;;;11.92;69.88;100190.41;30605493;28;97281;-69
2022/11/07 09:20:44;;;;;;;11.25;6.10;;;;;;;11.91;67.73;100180.78;30591475;28;97636;-69
2022/11/07 09:35:44;;;;;;;12.85;6.80;;;;;;;11.74;67.50;100196.91;30599500;28;98099;-70
2022/11/07 09:50:48;;;;;;;11.70;6.85;;;;;;;11.71;66.42;100213.25;30594942;28;97314;-72
2022/11/07 10:06:10;;;;;;;10.33;5.70;;;;;;;14.26;62.17;100190.72;30603765;28;98684;-73
2022/11/07 10:21:17;;;;;;;7.30;4.50;;;;;;;15.90;58.92;100191.91;30598295;28;97019;-72
2022/11/07 10:36:17;;;;;;;5.87;3.40;;;;;;;15.09;55.51;100192.69;30603510;28;97178;-73
2022/11/07 10:51:17;;;;;;;5.50;2.92;;;;;;;13.93;58.04;100188.59;30624413;28;98508;-74
2022/11/07 11:06:18;;;;;;;2.78;1.45;;;;;;;13.08;58.23;100188.28;30622314;28;97608;-73
2022/11/07 11:21:18;;;;;;;5.15;1.80;;;;;;;13.37;58.28;100173.22;30623048;28;97148;-71
2022/11/07 11:36:26;;;;;;;3.80;2.00;;;;;;;14.64;55.75;100187.72;30616026;28;97420;-73
2022/11/07 11:51:26;;;;;;;3.90;2.30;;;;;;;18.37;50.54;100175.81;30619351;28;96800;-72
2022/11/07 12:06:39;;;;;;;5.78;3.45;;;;;;;24.84;39.55;100172.53;30614679;28;97397;-76
2022/11/07 12:21:47;;;;;;;6.07;3.20;;;;;;;25.65;31.96;100157.47;30614828;28;97739;-73
2022/11/07 12:37:06;;;;;;;5.77;3.17;;;;;;;27.31;26.88;100169.69;30614828;28;96783;-73
2022/11/07 12:52:43;;;;;;;5.77;3.17;;;;;;;26.63;27.72;100165.59;30606515;28;97563;-73
2022/11/07 13:08:00;;;;;;;6.03;3.17;;;;;;;28.73;23.65;100166.31;30609612;28;97268;-74
2022/11/07 13:23:14;;;;;;;4.33;3.10;;;;;;;26.23;26.81;100175.53;30607871;28;97487;-74
2022/11/07 13:38:21;;;;;;;5.63;2.37;;;;;;;27.57;25.49;100171.44;30608259;28;96783;-72
2022/11/07 13:53:28;;;;;;;5.67;3.00;;;;;;;23.20;30.38;100175.56;30605754;28;98275;-74
2022/11/07 14:08:33;;;;;;;10.17;3.47;;;;;;;19.17;35.50;100179.50;30600532;28;97153;-73
2022/11/07 14:23:34;;;;;;;5.17;2.70;;;;;;;15.22;42.03;100176.63;30601720;28;96816;-74
2022/11/07 14:38:35;;;;;;;6.82;3.80;;;;;;;13.86;46.47;100183.19;30593559;28;97557;-72
2022/11/07 14:53:51;;;;;;;11.00;4.17;;;;;;;12.68;49.72;100190.41;30593941;28;97470;-71
2022/11/07 15:09:00;;;;;;;11.10;5.23;;;;;;;11.83;52.14;100190.47;30595639;28;97967;-72
2022/11/07 15:24:39;;;;;;;6.50;4.37;;;;;;;10.79;55.50;100208.56;30606493;28;96786;-68
2022/11/07 15:39:40;;;;;;;9.00;4.23;;;;;;;10.16;58.17;100221.59;30622385;28;97352;-69
2022/11/07 15:54:40;;;;;;;6.60;4.60;;;;;;;9.68;60.16;100208.09;30623963;28;96856;-69
2022/11/07 16:09:40;;;;;;;7.75;4.95;;;;;;;9.27;61.88;100208.00;30619348;28;96727;-76
2022/11/07 16:24:41;;;;;;;11.00;6.05;;;;;;;9.22;63.50;100215.63;30618131;28;97119;-75
2022/11/07 16:39:42;;;;;;;9.82;5.35;;;;;;;9.19;64.21;100211.47;30612777;28;99522;-68
2022/11/07 16:54:42;;;;;;;8.32;4.82;;;;;;;9.24;64.44;100217.13;30615298;28;96786;-82
2022/11/07 17:09:43;;;;;;;6.35;4.50;;;;;;;8.88;65.18;100225.25;30612930;28;96797;-67
2022/11/07 17:24:43;;;;;;;10.40;5.72;;;;;;;8.52;66.24;100227.22;30609921;28;96795;-73
2022/11/07 17:39:44;;;;;;;14.50;6.72;;;;;;;8.27;66.92;100217.22;30608417;28;99115;-72
2022/11/07 17:54:45;;;;;;;13.15;7.97;;;;;;;8.07;67.67;100216.56;30610477;28;96991;-71
2022/11/07 18:09:45;;;;;;;15.45;9.98;;;;;;;7.92;68.44;100228.72;30607476;28;96915;-72
2022/11/07 18:24:45;;;;;;;20.05;11.52;;;;;;;7.72;69.55;100231.53;30601844;28;96988;-67
2022/11/07 18:39:46;;;;;;;22.38;13.18;;;;;;;7.56;70.08;100226.03;30594361;28;96817;-69
2022/11/07 18:54:46;;;;;;;23.40;13.48;;;;;;;7.33;70.51;100234.41;30498278;28;97252;-68
2022/11/07 19:09:47;;;;;;;17.27;10.30;;;;;;;7.17;71.52;100242.19;30603012;28;97438;-68
2022/11/07 19:24:47;;;;;;;16.33;10.07;;;;;;;7.19;72.10;100242.84;30623039;28;97310;-70
2022/11/07 19:39:48;;;;;;;15.82;9.02;;;;;;;7.50;72.59;100242.56;30619863;28;96775;-69
2022/11/07 19:54:49;;;;;;;17.00;10.27;;;;;;;7.81;72.92;100260.78;30608056;28;96816;-70
2022/11/07 20:09:50;;;;;;;20.27;10.93;;;;;;;7.81;72.61;100258.13;30611367;28;97662;-67
2022/11/07 20:24:50;;;;;;;15.63;10.73;;;;;;;7.61;73.37;100267.03;30612760;28;98387;-69
2022/11/07 20:39:50;;;;;;;21.75;12.63;;;;;;;7.60;73.40;100268.03;30617686;28;97325;-68
2022/11/07 20:54:51;;;;;;;21.58;11.43;;;;;;;7.53;73.74;100271.41;30617551;28;96832;-68
2022/11/07 21:09:51;;;;;;;17.42;11.40;;;;;;;7.57;74.33;100267.47;30615805;28;97254;-68
2022/11/07 21:24:52;;;;;;;20.83;13.32;;;;;;;7.35;74.33;100274.84;30613014;28;98555;-70
2022/11/07 21:39:52;;;;;;;26.27;14.20;;;;;;;7.05;74.84;100273.31;30613350;28;97450;-70
2022/11/07 21:54:53;;;;;;;22.90;14.10;;;;;;;6.67;75.05;100270.66;30613495;28;96689;-68
2022/11/07 22:09:53;;;;;;;18.30;10.77;;;;;;;6.49;75.77;100264.41;30612192;28;96673;-70
2022/11/07 22:24:53;;;;;;;19.08;11.60;;;;;;;6.49;76.59;100259.09;30611205;28;97022;-70
2022/11/07 22:39:54;;;;;;;19.23;10.68;;;;;;;6.34;76.54;100272.78;30621273;28;96784;-68
2022/11/07 22:54:55;;;;;;;21.27;11.35;;;;;;;6.46;76.72;100278.75;30631440;28;97607;-71
2022/11/07 23:09:55;;;;;;;19.33;10.57;;;;;;;6.36;76.91;100273.47;30631000;28;97136;-71
2022/11/07 23:24:56;;;;;;;18.15;11.15;;;;;;;6.25;77.20;100270.97;30628689;28;96787;-67
2022/11/07 23:39:56;;;;;;;15.98;9.88;;;;;;;5.98;77.35;100275.16;30626301;28;97661;-68
